Time;durP1;ratioP1;P1;durP2;ratioP2;P2;SDS_P1;SDS_P2;PMS_P1;PMS_P2;Temp;Humidity;BMP_temperature;BMP_pressure;BME280_temperature;BME280_humidity;BME280_pressure;Samples;Min_cycle;Max_cycle;Signal;HPM_P1;HPM_P2
2022/07/05 03:02:15;;;;;;;0.70;0.70;;;20.60;65.40;;;;;;5301585;23;20490;-71
2022/07/05 03:04:42;;;;;;;0.70;0.60;;;20.50;65.40;;;;;;4955438;29;20439;-71
2022/07/05 03:07:08;;;;;;;0.70;0.50;;;20.50;65.50;;;;;;4955387;29;20502;-71
2022/07/05 03:09:35;;;;;;;0.80;0.60;;;20.40;65.50;;;;;;4955363;29;20442;-71
2022/07/05 03:12:01;;;;;;;0.73;0.60;;;20.40;65.70;;;;;;4954996;29;20857;-71
2022/07/05 03:14:28;;;;;;;0.73;0.57;;;20.40;65.70;;;;;;4955046;29;21026;-71
2022/07/05 03:16:55;;;;;;;0.70;0.60;;;20.30;65.60;;;;;;4956652;29;20505;-72
2022/07/05 03:19:23;;;;;;;0.70;0.60;;;20.30;65.80;;;;;;4955281;29;20478;-71
2022/07/05 03:21:49;;;;;;;0.70;0.60;;;20.20;66.10;;;;;;4955121;29;20487;-72
2022/07/05 03:24:16;;;;;;;0.70;0.50;;;20.20;66.00;;;;;;4955220;29;20478;-71
2022/07/05 03:26:43;;;;;;;0.70;0.70;;;20.20;65.80;;;;;;4955199;29;20515;-71
2022/07/05 03:29:10;;;;;;;1.27;0.53;;;20.10;65.80;;;;;;4955190;29;20451;-71
2022/07/05 03:31:36;;;;;;;0.70;0.50;;;20.10;65.80;;;;;;4955348;29;20521;-72
2022/07/05 03:34:03;;;;;;;0.70;0.63;;;20.10;65.90;;;;;;4955144;29;20447;-71
2022/07/05 03:36:31;;;;;;;1.00;0.70;;;20.00;66.10;;;;;;4955098;29;20502;-72
2022/07/05 03:38:58;;;;;;;1.27;0.70;;;20.00;66.30;;;;;;4955094;29;20458;-72
2022/07/05 03:41:24;;;;;;;0.80;0.60;;;20.00;66.30;;;;;;4954921;29;20498;-72
2022/07/05 03:43:51;;;;;;;0.70;0.50;;;20.00;66.20;;;;;;4955021;29;20447;-72
2022/07/05 03:46:18;;;;;;;0.77;0.67;;;20.00;66.20;;;;;;4955017;29;20451;-72
2022/07/05 03:48:44;;;;;;;0.70;0.70;;;20.00;66.30;;;;;;4954986;29;20451;-71
2022/07/05 03:51:11;;;;;;;0.80;0.70;;;20.00;66.30;;;;;;4954935;29;20471;-72
2022/07/05 03:53:39;;;;;;;0.70;0.60;;;20.00;66.50;;;;;;4954941;29;20439;-72
2022/07/05 03:56:05;;;;;;;0.70;0.60;;;20.00;66.60;;;;;;4954936;29;20480;-71
2022/07/05 03:58:32;;;;;;;0.70;0.60;;;19.90;66.90;;;;;;4954916;29;20450;-71
2022/07/05 04:00:59;;;;;;;0.70;0.57;;;19.90;67.10;;;;;;4954569;29;20498;-72
2022/07/05 04:03:25;;;;;;;0.70;0.60;;;19.90;67.00;;;;;;4954866;29;20487;-72
2022/07/05 04:05:52;;;;;;;0.70;0.60;;;19.90;66.80;;;;;;4954885;29;20450;-72
2022/07/05 04:08:19;;;;;;;0.70;0.60;;;19.90;66.60;;;;;;4956588;28;20446;-71
2022/07/05 04:10:47;;;;;;;0.70;0.60;;;20.00;66.70;;;;;;4958381;29;20467;-71
2022/07/05 04:13:13;;;;;;;0.70;0.60;;;20.00;66.80;;;;;;4958374;29;20454;-71
2022/07/05 04:15:40;;;;;;;0.70;0.50;;;20.10;66.80;;;;;;4958347;29;20513;-72
2022/07/05 04:18:06;;;;;;;0.90;0.60;;;20.20;66.50;;;;;;4958352;29;20888;-71
2022/07/05 04:20:33;;;;;;;0.80;0.70;;;20.10;66.50;;;;;;4957782;29;20482;-71
2022/07/05 04:23:00;;;;;;;0.70;0.70;;;20.20;66.90;;;;;;4958187;29;20451;-71
2022/07/05 04:25:27;;;;;;;0.80;0.57;;;20.20;66.90;;;;;;4958213;28;20825;-71
2022/07/05 04:27:55;;;;;;;0.80;0.60;;;20.20;67.30;;;;;;4958142;29;20450;-71
2022/07/05 04:30:24;;;;;;;0.70;0.60;;;20.30;67.60;;;;;;4958064;29;20505;-71
2022/07/05 04:32:52;;;;;;;0.70;0.60;;;20.40;67.50;;;;;;4958025;29;20462;-72
2022/07/05 04:35:18;;;;;;;0.70;0.50;;;20.40;66.90;;;;;;4957997;29;20863;-71
2022/07/05 04:37:46;;;;;;;0.70;0.60;;;20.50;66.60;;;;;;4957952;29;20505;-71
2022/07/05 04:40:14;;;;;;;0.70;0.60;;;20.50;66.40;;;;;;4957822;29;20501;-71
2022/07/05 04:42:42;;;;;;;0.70;0.60;;;20.60;66.20;;;;;;4957779;29;20475;-71
2022/07/05 04:45:10;;;;;;;0.70;0.60;;;20.70;65.90;;;;;;4957497;29;20942;-71
2022/07/05 04:47:37;;;;;;;0.70;0.50;;;20.80;65.90;;;;;;4957795;29;20447;-71
2022/07/05 04:50:05;;;;;;;0.93;0.80;;;20.80;65.90;;;;;;4957727;29;20446;-71
2022/07/05 04:52:32;;;;;;;0.70;0.60;;;21.00;65.80;;;;;;4957729;28;20518;-71
2022/07/05 04:54:59;;;;;;;1.13;0.60;;;21.10;65.70;;;;;;4957657;29;20451;-71
2022/07/05 04:57:25;;;;;;;0.70;0.60;;;21.20;65.50;;;;;;4957611;29;20451;-71
2022/07/05 04:59:52;;;;;;;0.70;0.50;;;21.30;65.30;;;;;;4957560;29;20451;-71
2022/07/05 05:02:20;;;;;;;0.70;0.57;;;21.40;65.20;;;;;;4956995;29;20895;-71
2022/07/05 05:04:47;;;;;;;0.70;0.50;;;21.50;64.90;;;;;;4957165;29;21018;-72
2022/07/05 05:07:13;;;;;;;0.70;0.60;;;21.60;62.70;;;;;;4957416;29;20447;-71
2022/07/05 05:09:40;;;;;;;0.70;0.60;;;21.80;62.20;;;;;;4957143;28;21025;-71
2022/07/05 05:12:07;;;;;;;0.70;0.53;;;21.80;61.30;;;;;;4957288;29;20463;-72
2022/07/05 05:14:34;;;;;;;0.70;0.60;;;22.00;60.50;;;;;;4957002;29;21013;-71
2022/07/05 05:17:00;;;;;;;1.90;0.60;;;22.10;59.90;;;;;;4956982;29;20451;-72
2022/07/05 05:19:28;;;;;;;0.70;0.60;;;22.20;60.30;;;;;;4956342;28;20509;-72
2022/07/05 05:21:55;;;;;;;0.70;0.50;;;22.40;59.40;;;;;;4957060;29;20494;-71
2022/07/05 05:24:22;;;;;;;0.80;0.60;;;22.40;59.00;;;;;;4957093;29;20447;-71
2022/07/05 05:26:49;;;;;;;1.10;0.60;;;22.50;58.20;;;;;;4957039;29;20541;-71
2022/07/05 05:29:15;;;;;;;0.70;0.60;;;22.70;59.10;;;;;;4957041;29;20451;-71
2022/07/05 05:31:42;;;;;;;0.80;0.60;;;22.70;57.40;;;;;;4956890;29;20471;-72
2022/07/05 05:34:09;;;;;;;1.47;0.60;;;22.60;57.50;;;;;;4956931;29;20513;-72
2022/07/05 05:36:37;;;;;;;0.70;0.60;;;22.80;57.70;;;;;;4956903;29;20509;-72
2022/07/05 05:39:03;;;;;;;0.70;0.50;;;22.90;58.50;;;;;;4956836;29;20506;-72
2022/07/05 05:41:30;;;;;;;0.90;0.60;;;23.00;58.00;;;;;;4956451;29;20486;-72
2022/07/05 05:43:57;;;;;;;0.90;0.70;;;23.10;56.20;;;;;;4956762;29;20451;-72
2022/07/05 05:46:23;;;;;;;0.70;0.50;;;23.10;55.80;;;;;;4956370;29;20949;-72
2022/07/05 05:48:50;;;;;;;0.70;0.60;;;23.20;55.60;;;;;;4956345;29;20934;-72
2022/07/05 05:51:17;;;;;;;0.70;0.50;;;23.20;55.40;;;;;;4956291;29;21041;-71
2022/07/05 05:53:45;;;;;;;1.00;0.60;;;23.20;55.30;;;;;;4956558;29;20497;-72
2022/07/05 05:56:12;;;;;;;0.70;0.60;;;23.30;55.40;;;;;;4956213;29;20939;-72
2022/07/05 05:58:39;;;;;;;0.70;0.50;;;23.50;55.50;;;;;;4956391;28;20447;-72
2022/07/05 06:01:05;;;;;;;1.57;0.60;;;23.60;55.40;;;;;;4956075;29;20879;-72
2022/07/05 06:04:02;;;;;;;0.70;0.60;;;23.60;54.50;;;;;;4956435;29;20431;-72
2022/07/05 06:06:29;;;;;;;0.67;0.50;;;23.80;53.90;;;;;;4955247;28;20451;-72
2022/07/05 06:08:56;;;;;;;0.60;0.50;;;24.00;53.50;;;;;;4956311;29;20502;-72
2022/07/05 06:11:23;;;;;;;0.70;0.50;;;24.00;53.10;;;;;;4956504;29;20537;-73
2022/07/05 06:13:50;;;;;;;0.97;0.60;;;24.10;53.20;;;;;;4956195;29;20859;-73
2022/07/05 06:16:16;;;;;;;0.80;0.60;;;24.40;53.30;;;;;;4956030;29;20450;-72
2022/07/05 06:18:43;;;;;;;0.70;0.50;;;24.50;51.80;;;;;;4955984;29;20446;-72
2022/07/05 06:21:10;;;;;;;1.00;0.53;;;24.60;52.00;;;;;;4955887;29;20494;-72
2022/07/05 06:23:36;;;;;;;0.80;0.60;;;24.70;53.80;;;;;;4956030;29;20451;-71
2022/07/05 06:26:04;;;;;;;0.80;0.60;;;24.60;54.00;;;;;;4956001;29;20527;-72
2022/07/05 06:28:32;;;;;;;0.70;0.50;;;24.80;52.80;;;;;;4955963;29;20447;-71
2022/07/05 06:30:59;;;;;;;0.70;0.60;;;25.00;52.40;;;;;;4955744;28;20477;-72
2022/07/05 06:33:27;;;;;;;0.70;0.60;;;25.20;50.90;;;;;;4955884;29;20502;-72
2022/07/05 06:35:54;;;;;;;0.70;0.60;;;25.30;51.80;;;;;;4955408;29;20879;-71
2022/07/05 06:38:21;;;;;;;0.70;0.53;;;25.30;51.80;;;;;;4955415;29;20942;-71
2022/07/05 06:40:48;;;;;;;0.70;0.60;;;25.10;52.90;;;;;;4955642;29;20467;-72
2022/07/05 06:43:16;;;;;;;1.00;0.60;;;25.20;52.70;;;;;;4955727;29;20462;-72
2022/07/05 06:45:42;;;;;;;0.70;0.50;;;25.50;52.70;;;;;;4955732;29;20455;-72
2022/07/05 06:48:10;;;;;;;0.70;0.60;;;25.70;51.10;;;;;;4955625;29;20497;-71
2022/07/05 06:50:40;;;;;;;0.80;0.60;;;25.60;50.30;;;;;;4955525;29;20502;-72
2022/07/05 06:53:08;;;;;;;1.40;0.57;;;25.70;51.80;;;;;;4955549;29;20506;-72
2022/07/05 06:55:34;;;;;;;0.70;0.60;;;25.80;52.50;;;;;;4955205;29;20826;-71
2022/07/05 06:58:04;;;;;;;0.70;0.67;;;26.00;51.80;;;;;;4955438;29;20447;-72
2022/07/05 07:00:32;;;;;;;0.70;0.50;;;26.00;51.50;;;;;;4955415;29;20457;-71
2022/07/05 07:02:59;;;;;;;1.10;0.60;;;26.20;52.40;;;;;;4954951;29;20502;-71
2022/07/05 07:05:26;;;;;;;0.70;0.60;;;26.10;51.50;;;;;;4955444;29;20446;-71
2022/07/05 07:10:38;;;;;;;1.27;0.50;;;25.80;51.90;;;;;;4955387;29;20406;-71
2022/07/05 07:13:04;;;;;;;0.80;0.60;;;25.50;53.00;;;;;;4955336;29;20447;-71
2022/07/05 07:15:33;;;;;;;0.70;0.50;;;25.10;53.60;;;;;;4954978;29;20870;-73
2022/07/05 07:18:01;;;;;;;0.60;0.40;;;25.40;54.80;;;;;;4955233;29;20513;-72
2022/07/05 07:20:27;;;;;;;0.70;0.53;;;25.80;52.80;;;;;;4955195;29;20451;-72
2022/07/05 07:22:54;;;;;;;0.70;0.60;;;26.20;51.00;;;;;;4954964;29;20997;-72
2022/07/05 07:25:23;;;;;;;0.70;0.50;;;26.50;51.50;;;;;;4954950;29;21001;-72
2022/07/05 07:27:51;;;;;;;0.90;0.60;;;26.20;51.80;;;;;;4954776;29;20946;-72
2022/07/05 07:30:19;;;;;;;0.90;0.70;;;26.00;52.20;;;;;;4955225;29;20455;-72
2022/07/05 07:32:48;;;;;;;0.67;0.50;;;26.20;52.80;;;;;;4955151;29;20467;-72
2022/07/05 07:35:14;;;;;;;0.70;0.57;;;26.40;53.30;;;;;;4954955;29;20941;-72
2022/07/05 07:37:41;;;;;;;0.80;0.60;;;26.10;51.40;;;;;;4955164;29;20454;-71
2022/07/05 07:40:09;;;;;;;0.70;0.50;;;25.90;52.90;;;;;;4955078;29;20487;-71
2022/07/05 07:42:36;;;;;;;1.20;0.50;;;25.90;52.40;;;;;;4955652;28;20482;-72
2022/07/05 07:45:04;;;;;;;0.70;0.60;;;25.80;51.60;;;;;;4958904;29;20455;-71
2022/07/05 07:47:30;;;;;;;0.70;0.50;;;25.90;53.10;;;;;;4959248;29;20538;-72
2022/07/05 07:49:59;;;;;;;0.70;0.50;;;26.20;51.40;;;;;;4958862;29;20505;-72
2022/07/05 07:52:26;;;;;;;0.90;0.60;;;26.40;52.90;;;;;;4958704;29;20584;-71
2022/07/05 07:54:53;;;;;;;0.70;0.60;;;26.80;47.70;;;;;;4958748;29;20549;-71
2022/07/05 07:57:20;;;;;;;0.80;0.50;;;26.70;50.60;;;;;;4958658;29;20501;-71
2022/07/05 07:59:46;;;;;;;1.00;0.60;;;27.00;50.10;;;;;;4958349;29;20950;-71
2022/07/05 08:02:13;;;;;;;0.80;0.50;;;27.20;47.20;;;;;;4958029;29;20998;-71
2022/07/05 08:04:40;;;;;;;0.90;0.50;;;26.90;49.00;;;;;;4958560;29;20507;-71
2022/07/05 08:07:08;;;;;;;0.70;0.50;;;26.90;49.00;;;;;;4958544;29;20526;-71
2022/07/05 08:09:34;;;;;;;0.67;0.50;;;27.10;49.40;;;;;;4958435;29;20451;-72
2022/07/05 08:12:01;;;;;;;0.70;0.50;;;27.40;48.40;;;;;;4958296;29;20467;-71
2022/07/05 08:14:28;;;;;;;0.70;0.57;;;27.50;47.90;;;;;;4958010;29;20814;-71
2022/07/05 08:16:55;;;;;;;0.70;0.60;;;27.70;47.20;;;;;;4958025;29;21004;-72
2022/07/05 08:22:08;;;;;;;0.80;0.60;;;27.90;46.30;;;;;;4958097;29;20488;-71
2022/07/05 08:24:35;;;;;;;0.70;0.50;;;27.80;47.40;;;;;;4958178;29;20447;-71
2022/07/05 08:27:02;;;;;;;0.70;0.50;;;27.50;47.50;;;;;;4958151;29;20446;-72
2022/07/05 08:29:29;;;;;;;0.70;0.60;;;27.70;46.60;;;;;;4958043;29;20554;-71
2022/07/05 08:31:56;;;;;;;0.80;0.60;;;28.00;45.90;;;;;;4957993;29;20514;-72
2022/07/05 08:34:22;;;;;;;0.80;0.70;;;28.10;46.00;;;;;;4957739;29;20965;-71
2022/07/05 08:36:49;;;;;;;0.70;0.60;;;28.10;45.20;;;;;;4957980;29;20455;-71
2022/07/05 08:39:17;;;;;;;0.70;0.50;;;27.90;47.00;;;;;;4958025;29;20450;-71
2022/07/05 08:41:51;;;;;;;0.80;0.60;;;27.80;49.00;;;;;;4957741;29;20491;-71
2022/07/05 08:44:20;;;;;;;0.70;0.50;;;27.90;46.80;;;;;;4957593;29;20911;-72
2022/07/05 08:46:50;;;;;;;0.70;0.50;;;28.00;47.90;;;;;;4957789;29;20454;-71
2022/07/05 08:49:21;;;;;;;0.70;0.60;;;28.10;46.50;;;;;;4957820;29;20530;-72
2022/07/05 08:51:50;;;;;;;0.80;0.57;;;28.10;46.60;;;;;;4957628;29;20474;-72
2022/07/05 08:54:18;;;;;;;0.70;0.60;;;28.10;46.80;;;;;;4956352;28;20458;-71
2022/07/05 08:56:45;;;;;;;0.70;0.60;;;28.30;46.20;;;;;;4957620;28;20454;-71
2022/07/05 08:59:12;;;;;;;0.70;0.50;;;28.40;46.10;;;;;;4957548;29;20446;-72
2022/07/05 09:01:40;;;;;;;0.70;0.60;;;28.50;45.70;;;;;;4957158;29;20490;-72
2022/07/05 09:04:09;;;;;;;0.70;0.60;;;28.30;48.10;;;;;;4957581;29;20454;-72
2022/07/05 09:06:38;;;;;;;0.70;0.50;;;28.30;46.70;;;;;;4957953;29;20447;-72
2022/07/05 09:09:05;;;;;;;0.70;0.60;;;28.40;46.20;;;;;;4958886;29;20455;-72
2022/07/05 09:11:37;;;;;;;0.70;0.50;;;28.30;46.30;;;;;;4957641;29;20506;-70
2022/07/05 09:14:05;;;;;;;1.33;0.50;;;28.50;44.30;;;;;;4958367;29;20440;-71
2022/07/05 09:16:32;;;;;;;0.70;0.50;;;28.40;45.20;;;;;;4959183;29;20451;-71
2022/07/05 09:19:07;;;;;;;0.70;0.50;;;28.60;44.90;;;;;;4958030;29;20538;-72
2022/07/05 09:21:34;;;;;;;0.70;0.50;;;28.80;44.80;;;;;;4958529;29;20529;-71
2022/07/05 09:24:04;;;;;;;0.70;0.50;;;28.90;45.10;;;;;;4957927;29;20870;-72
2022/07/05 09:26:36;;;;;;;0.70;0.57;;;28.80;44.00;;;;;;4958409;29;20447;-71
2022/07/05 09:29:04;;;;;;;0.90;0.60;;;28.40;44.80;;;;;;4957996;29;20545;-71
2022/07/05 09:31:32;;;;;;;0.70;0.50;;;28.20;46.00;;;;;;4957856;29;20982;-71
2022/07/05 09:34:06;;;;;;;0.80;0.60;;;28.30;45.40;;;;;;4957899;29;20550;-71
2022/07/05 09:36:52;;;;;;;0.70;0.60;;;28.30;45.50;;;;;;4957913;28;20529;-71
2022/07/05 09:39:19;;;;;;;0.70;0.50;;;28.40;44.90;;;;;;4958098;29;20443;-70
2022/07/05 09:41:47;;;;;;;0.70;0.50;;;28.70;43.80;;;;;;4958035;29;20530;-73
2022/07/05 09:44:26;;;;;;;0.70;0.60;;;28.60;43.30;;;;;;4958158;29;20443;-72
2022/07/05 09:47:09;;;;;;;0.70;0.53;;;28.50;43.90;;;;;;4957633;28;20486;-71
2022/07/05 09:49:36;;;;;;;0.80;0.60;;;28.60;45.70;;;;;;4957872;29;20445;-72
2022/07/05 09:52:03;;;;;;;0.93;0.50;;;28.60;45.00;;;;;;4957249;29;20462;-73
2022/07/05 09:54:30;;;;;;;0.70;0.60;;;28.40;44.20;;;;;;4956983;29;20458;-72
2022/07/05 09:56:58;;;;;;;0.70;0.60;;;28.20;44.90;;;;;;4956911;29;20468;-73
2022/07/05 09:59:25;;;;;;;0.70;0.60;;;28.20;44.50;;;;;;4956939;29;20447;-72
2022/07/05 10:01:52;;;;;;;0.73;0.63;;;28.30;45.10;;;;;;4956461;29;20490;-73
2022/07/05 10:04:19;;;;;;;0.70;0.70;;;28.20;46.60;;;;;;4956669;29;20510;-71
2022/07/05 10:06:45;;;;;;;0.80;0.60;;;28.40;46.70;;;;;;4956167;28;20517;-71
2022/07/05 10:09:14;;;;;;;0.70;0.60;;;28.60;43.20;;;;;;4956597;29;20446;-71
2022/07/05 10:11:42;;;;;;;0.70;0.60;;;28.80;44.30;;;;;;4956533;29;20563;-71
2022/07/05 10:14:16;;;;;;;1.17;0.70;;;28.90;43.20;;;;;;4956392;29;20451;-72
2022/07/05 10:16:47;;;;;;;1.00;0.60;;;29.00;45.10;;;;;;4956244;29;20436;-72
2022/07/05 10:19:20;;;;;;;0.70;0.50;;;28.90;42.90;;;;;;4956324;29;20518;-72
2022/07/05 10:21:47;;;;;;;0.70;0.50;;;28.50;42.00;;;;;;4956183;28;20502;-72
2022/07/05 10:24:16;;;;;;;0.70;0.60;;;28.50;44.60;;;;;;4956435;29;20507;-72
2022/07/05 10:26:44;;;;;;;1.00;0.60;;;28.50;46.00;;;;;;4956233;29;20506;-72
2022/07/05 10:29:12;;;;;;;1.63;0.60;;;28.40;44.60;;;;;;4956034;29;20459;-71
2022/07/05 10:31:40;;;;;;;0.80;0.60;;;28.20;43.50;;;;;;4955954;29;20470;-71
2022/07/05 10:34:10;;;;;;;0.77;0.50;;;28.30;44.50;;;;;;4956150;29;20458;-71
2022/07/05 10:36:40;;;;;;;0.70;0.50;;;28.30;45.60;;;;;;4957132;29;20427;-71
2022/07/05 10:39:08;;;;;;;0.70;0.60;;;28.60;44.30;;;;;;4958178;29;20859;-74
2022/07/05 10:41:35;;;;;;;0.70;0.60;;;28.90;43.80;;;;;;4957632;29;20501;-74
2022/07/05 10:44:03;;;;;;;0.70;0.50;;;29.20;42.60;;;;;;4957438;29;21026;-74
2022/07/05 10:46:41;;;;;;;0.80;0.60;;;29.30;42.40;;;;;;4960555;29;20454;-72
2022/07/05 10:49:12;;;;;;;0.70;0.50;;;29.20;42.20;;;;;;4958304;29;20439;-70
2022/07/05 10:51:39;;;;;;;0.70;0.60;;;28.90;43.30;;;;;;4955969;29;20474;-74
2022/07/05 10:54:05;;;;;;;0.70;0.50;;;28.40;43.50;;;;;;4955634;28;20529;-74
2022/07/05 10:56:32;;;;;;;1.67;0.60;;;28.60;44.20;;;;;;4955546;29;20498;-73
2022/07/05 10:59:09;;;;;;;0.63;0.50;;;28.60;42.40;;;;;;4955566;29;20451;-75
2022/07/05 11:01:39;;;;;;;0.70;0.60;;;28.60;42.20;;;;;;4955281;29;20561;-75
2022/07/05 11:04:29;;;;;;;0.80;0.60;;;28.40;41.80;;;;;;4955377;29;20490;-76
2022/07/05 11:06:57;;;;;;;0.80;0.80;;;28.30;42.10;;;;;;4955475;29;20439;-75
2022/07/05 11:09:23;;;;;;;0.70;0.60;;;28.40;42.80;;;;;;4955143;28;21018;-75
2022/07/05 11:12:09;;;;;;;0.70;0.60;;;28.60;42.40;;;;;;4954978;29;21009;-75
2022/07/05 11:14:40;;;;;;;0.70;0.60;;;28.80;43.20;;;;;;4954943;28;20451;-75
2022/07/05 11:17:25;;;;;;;0.70;0.50;;;29.00;44.60;;;;;;4954560;29;20450;-75
2022/07/05 11:20:06;;;;;;;0.70;0.50;;;29.00;44.10;;;;;;4955414;29;20482;-75
2022/07/05 11:22:34;;;;;;;0.77;0.73;;;29.30;43.30;;;;;;4955014;29;20497;-73
2022/07/05 11:25:02;;;;;;;0.70;0.60;;;29.40;44.20;;;;;;4955156;29;20497;-74
2022/07/05 11:27:29;;;;;;;0.70;0.50;;;29.50;43.50;;;;;;4955167;29;20462;-74
2022/07/05 11:29:57;;;;;;;0.80;0.60;;;29.50;42.70;;;;;;4955160;29;20454;-74
2022/07/05 11:32:36;;;;;;;0.70;0.50;;;29.30;42.20;;;;;;4955083;29;20471;-74
2022/07/05 11:35:15;;;;;;;0.70;0.53;;;29.00;42.90;;;;;;4955152;29;20490;-73
2022/07/05 11:38:04;;;;;;;0.80;0.60;;;29.00;44.30;;;;;;4955112;28;20447;-72
2022/07/05 11:40:33;;;;;;;0.60;0.50;;;29.20;43.20;;;;;;4955142;28;20863;-73
2022/07/05 11:43:02;;;;;;;0.80;0.60;;;29.30;42.60;;;;;;4954729;29;21028;-73
2022/07/05 11:45:29;;;;;;;0.70;0.60;;;29.20;42.70;;;;;;4955018;29;20458;-73
2022/07/05 11:47:58;;;;;;;0.70;0.60;;;29.20;43.50;;;;;;4954968;29;20447;-73
2022/07/05 11:50:31;;;;;;;0.70;0.50;;;29.30;43.20;;;;;;4954959;28;20538;-72
2022/07/05 11:52:58;;;;;;;0.70;0.60;;;29.40;43.20;;;;;;4954985;29;20534;-72
2022/07/05 11:55:27;;;;;;;0.80;0.60;;;29.50;43.70;;;;;;4954965;29;20459;-72
2022/07/05 11:57:55;;;;;;;0.67;0.50;;;29.70;44.10;;;;;;4954955;29;20493;-72
2022/07/05 12:00:29;;;;;;;0.70;0.50;;;29.70;42.00;;;;;;4954542;29;21010;-72
2022/07/05 12:02:57;;;;;;;0.80;0.60;;;29.80;42.50;;;;;;4954412;29;20497;-72
2022/07/05 12:05:29;;;;;;;0.70;0.60;;;30.10;42.80;;;;;;4954551;29;20955;-72
2022/07/05 12:07:56;;;;;;;0.60;0.50;;;30.40;42.50;;;;;;4954867;29;20443;-72
2022/07/05 12:13:08;;;;;;;0.83;0.60;;;30.20;42.40;;;;;;4955448;29;20415;-71
2022/07/05 12:15:35;;;;;;;0.90;0.60;;;30.10;42.40;;;;;;4955190;29;20455;-72
2022/07/05 12:18:05;;;;;;;0.73;0.63;;;29.90;41.70;;;;;;4955013;29;20473;-71
2022/07/05 12:20:33;;;;;;;0.70;0.60;;;29.70;41.80;;;;;;4954527;29;20454;-71
2022/07/05 12:23:00;;;;;;;0.70;0.50;;;28.90;43.40;;;;;;4954585;29;20510;-71
2022/07/05 12:25:28;;;;;;;0.70;0.60;;;28.80;43.90;;;;;;4955073;29;20497;-71
2022/07/05 12:27:57;;;;;;;0.70;0.60;;;28.50;45.40;;;;;;4955098;29;20447;-71
2022/07/05 12:30:24;;;;;;;0.70;0.60;;;28.60;45.90;;;;;;4958084;29;21006;-72
2022/07/05 12:32:55;;;;;;;0.90;0.60;;;29.00;44.60;;;;;;4958171;29;20850;-72
2022/07/05 12:35:34;;;;;;;0.80;0.70;;;29.30;44.50;;;;;;4958694;28;20463;-71
2022/07/05 12:38:06;;;;;;;0.70;0.50;;;29.40;43.70;;;;;;4958370;29;20903;-72
2022/07/05 12:40:33;;;;;;;0.70;0.50;;;29.50;42.70;;;;;;4958160;29;20451;-71
2022/07/05 12:43:08;;;;;;;0.70;0.50;;;29.70;43.80;;;;;;4958233;29;20483;-71
2022/07/05 12:45:36;;;;;;;1.40;0.57;;;29.40;41.60;;;;;;4958270;29;20447;-72
2022/07/05 12:48:04;;;;;;;1.63;0.60;;;28.70;43.80;;;;;;4958198;29;20450;-71
2022/07/05 12:50:46;;;;;;;0.73;0.60;;;28.90;45.30;;;;;;4958086;29;20538;-72
2022/07/05 12:58:51;;;;;;;0.70;0.50;;;28.90;44.00;;;;;;4958166;29;20476;-71
2022/07/05 13:01:23;;;;;;;0.70;0.60;;;28.90;43.90;;;;;;4957495;29;20991;-71
2022/07/05 13:04:00;;;;;;;0.80;0.60;;;28.90;44.80;;;;;;4957611;29;20494;-71
2022/07/05 13:06:50;;;;;;;0.70;0.60;;;29.20;44.70;;;;;;4957955;29;20459;-71
2022/07/05 13:09:31;;;;;;;1.20;0.60;;;29.50;43.40;;;;;;4952147;28;20837;-72
2022/07/05 13:12:07;;;;;;;0.80;0.60;;;29.70;42.30;;;;;;4957732;29;20561;-71
2022/07/05 13:14:34;;;;;;;0.70;0.53;;;29.80;42.20;;;;;;4957802;28;20431;-71
2022/07/05 13:17:01;;;;;;;0.70;0.60;;;29.90;43.00;;;;;;4957245;29;20994;-71
2022/07/05 13:19:28;;;;;;;0.70;0.50;;;30.30;42.20;;;;;;4957437;29;20494;-71
2022/07/05 13:21:56;;;;;;;1.33;0.60;;;30.50;45.60;;;;;;4957469;29;20467;-71
2022/07/05 13:24:22;;;;;;;0.70;0.60;;;30.60;41.80;;;;;;4957408;29;20486;-71
2022/07/05 13:26:49;;;;;;;0.70;0.50;;;30.70;41.60;;;;;;4957354;29;20529;-71
2022/07/05 13:29:16;;;;;;;0.63;0.50;;;30.50;41.20;;;;;;4957387;28;20525;-71
2022/07/05 13:31:43;;;;;;;0.70;0.60;;;30.30;41.30;;;;;;4957403;29;20549;-72
2022/07/05 13:34:09;;;;;;;0.93;0.63;;;30.30;42.20;;;;;;4957265;29;20447;-72
2022/07/05 13:36:36;;;;;;;0.67;0.50;;;30.30;42.70;;;;;;4957270;29;20451;-71
2022/07/05 13:39:04;;;;;;;0.70;0.50;;;30.30;43.00;;;;;;4957265;29;20458;-73
2022/07/05 13:41:31;;;;;;;0.70;0.57;;;30.30;42.80;;;;;;4956433;28;20474;-72
2022/07/05 13:43:58;;;;;;;0.70;0.60;;;30.50;43.70;;;;;;4957113;29;20529;-72
2022/07/05 13:46:25;;;;;;;0.70;0.53;;;30.60;43.60;;;;;;4957126;29;20446;-71
2022/07/05 13:48:52;;;;;;;0.70;0.50;;;30.20;42.20;;;;;;4956746;29;20455;-72
2022/07/05 13:51:18;;;;;;;0.67;0.50;;;30.00;43.20;;;;;;4956525;29;20878;-72
2022/07/05 13:53:45;;;;;;;0.70;0.60;;;30.40;43.40;;;;;;4956953;29;20927;-72
2022/07/05 13:56:13;;;;;;;1.23;0.90;;;30.40;41.80;;;;;;4956520;29;20478;-72
2022/07/05 13:58:40;;;;;;;0.70;0.60;;;30.50;42.00;;;;;;4956737;29;20451;-73
2022/07/05 14:01:07;;;;;;;0.60;0.50;;;30.40;41.80;;;;;;4956469;29;20851;-72
2022/07/05 14:03:34;;;;;;;0.70;0.60;;;30.30;42.50;;;;;;4956848;29;20463;-72
2022/07/05 14:06:00;;;;;;;0.80;0.57;;;30.30;42.20;;;;;;4956775;29;20459;-71
2022/07/05 14:08:27;;;;;;;0.80;0.50;;;30.20;42.80;;;;;;4956798;29;20487;-71
2022/07/05 14:10:57;;;;;;;0.70;0.60;;;30.30;43.00;;;;;;4956271;29;20891;-72
2022/07/05 14:13:26;;;;;;;0.60;0.50;;;30.40;43.40;;;;;;4956504;29;20463;-72
2022/07/05 14:15:53;;;;;;;0.70;0.60;;;30.40;42.10;;;;;;4956381;29;20470;-72
2022/07/05 14:18:21;;;;;;;0.70;0.57;;;30.50;42.50;;;;;;4956187;29;20455;-71
2022/07/05 14:20:48;;;;;;;0.70;0.50;;;30.50;42.50;;;;;;4956018;29;20471;-72
2022/07/05 14:23:16;;;;;;;0.70;0.50;;;30.40;42.30;;;;;;4956074;28;20474;-72
2022/07/05 14:25:43;;;;;;;0.70;0.50;;;30.40;42.30;;;;;;4956032;29;20533;-72
2022/07/05 14:28:10;;;;;;;0.80;0.60;;;30.60;41.70;;;;;;4955990;29;20451;-73
2022/07/05 14:30:40;;;;;;;0.90;0.50;;;30.70;41.50;;;;;;4955829;29;20505;-71
2022/07/05 14:33:07;;;;;;;0.63;0.60;;;30.80;41.30;;;;;;4955858;29;20447;-70
2022/07/05 14:35:35;;;;;;;0.70;0.60;;;30.80;42.30;;;;;;4955866;28;20853;-72
2022/07/05 14:38:01;;;;;;;0.87;0.60;;;31.10;42.00;;;;;;4955732;29;20459;-72
2022/07/05 14:40:30;;;;;;;0.70;0.50;;;31.30;41.40;;;;;;4955716;28;20522;-72
2022/07/05 14:42:58;;;;;;;0.70;0.60;;;31.50;40.60;;;;;;4955849;29;20458;-72
2022/07/05 14:45:26;;;;;;;1.17;0.60;;;31.50;41.10;;;;;;4955729;29;20581;-72
2022/07/05 14:47:54;;;;;;;0.70;0.50;;;31.40;40.10;;;;;;4955784;29;20451;-72
2022/07/05 14:50:23;;;;;;;0.90;0.60;;;31.00;40.70;;;;;;4955694;29;20452;-72
2022/07/05 14:52:50;;;;;;;0.70;0.60;;;30.60;41.50;;;;;;4955228;28;21014;-72
2022/07/05 14:55:18;;;;;;;0.70;0.60;;;30.70;41.60;;;;;;4955666;29;20443;-73
2022/07/05 14:57:45;;;;;;;0.83;0.60;;;30.80;40.90;;;;;;4955544;29;20450;-72
2022/07/05 15:00:13;;;;;;;0.67;0.50;;;30.80;40.90;;;;;;4955169;29;21002;-72
2022/07/05 15:02:41;;;;;;;0.70;0.60;;;30.70;41.00;;;;;;4955126;29;20545;-73
2022/07/05 15:05:11;;;;;;;0.70;0.60;;;30.50;41.10;;;;;;4955438;29;20486;-72
2022/07/05 15:07:38;;;;;;;0.73;0.60;;;30.50;42.40;;;;;;4955492;29;20439;-72
2022/07/05 15:10:06;;;;;;;0.70;0.60;;;30.30;41.30;;;;;;4955126;28;20824;-72
2022/07/05 15:12:32;;;;;;;0.63;0.50;;;30.20;42.40;;;;;;4955107;28;20530;-72
2022/07/05 15:14:59;;;;;;;0.70;0.50;;;30.30;41.40;;;;;;4955426;29;20447;-72
2022/07/05 15:17:25;;;;;;;0.70;0.50;;;30.30;41.90;;;;;;4956583;29;20450;-72
2022/07/05 15:19:52;;;;;;;0.70;0.60;;;30.20;42.50;;;;;;4955505;29;20447;-72
2022/07/05 15:22:20;;;;;;;0.70;0.60;;;30.30;42.20;;;;;;4955708;29;20479;-72
2022/07/05 15:24:47;;;;;;;0.70;0.60;;;30.40;42.50;;;;;;4955419;29;20482;-72
2022/07/05 15:27:14;;;;;;;0.67;0.50;;;30.50;41.50;;;;;;4955485;29;20493;-72
2022/07/05 15:29:41;;;;;;;0.70;0.57;;;30.10;40.70;;;;;;4955453;29;20459;-71
2022/07/05 15:32:09;;;;;;;0.70;0.60;;;30.00;41.30;;;;;;4955202;29;20481;-72
2022/07/05 15:34:35;;;;;;;0.70;0.57;;;30.10;41.40;;;;;;4955158;28;20935;-73
2022/07/05 15:37:02;;;;;;;0.80;0.60;;;30.30;41.90;;;;;;4955477;28;20482;-72
2022/07/05 15:39:32;;;;;;;0.70;0.60;;;30.60;42.20;;;;;;4955288;29;20954;-72
2022/07/05 15:42:00;;;;;;;0.90;0.60;;;30.70;40.10;;;;;;4955241;29;20486;-72
2022/07/05 15:44:27;;;;;;;0.67;0.50;;;30.80;39.80;;;;;;4955030;29;20475;-72
2022/07/05 15:47:09;;;;;;;0.70;0.50;;;30.80;39.80;;;;;;4954787;29;20455;-73
2022/07/05 15:49:36;;;;;;;0.70;0.60;;;30.80;39.20;;;;;;4955077;29;20450;-72
2022/07/05 15:52:03;;;;;;;0.70;0.57;;;30.70;39.90;;;;;;4954625;29;20974;-72
2022/07/05 15:54:31;;;;;;;0.80;0.60;;;30.40;40.90;;;;;;4954964;29;20522;-72
2022/07/05 15:56:57;;;;;;;0.70;0.60;;;30.40;40.70;;;;;;4954592;29;20850;-72
2022/07/05 15:59:24;;;;;;;0.70;0.50;;;30.40;40.80;;;;;;4954873;29;20514;-72
2022/07/05 16:01:51;;;;;;;0.67;0.53;;;30.60;40.90;;;;;;4954627;29;20485;-73
2022/07/05 16:04:18;;;;;;;0.70;0.50;;;30.70;40.60;;;;;;4956700;28;20482;-72
2022/07/05 16:06:45;;;;;;;0.70;0.60;;;30.70;41.00;;;;;;4958695;29;20486;-72
2022/07/05 16:09:11;;;;;;;0.70;0.50;;;30.70;39.80;;;;;;4958614;29;20450;-72